Terminal Aerodrome Forecast
Issued by NWS

Home | Current Version | Previous Version | Text Only | Print | Product List | Glossary On
Versions: 1 2 3 4 5 6 7 8 9 10 11 12 13 14 15 16 17
000
FTUS46 KMTR 101700
TAFSNS
TAF
KSNS 101729Z 1018/1118 28005KT P6SM SCT015
     FM102000 30015KT P6SM SKC
     FM110200 30008KT P6SM BKN012
     FM110600 30005KT P6SM OVC009=

USA.gov is the U.S. government's official web portal to all federal, state and local government web resources and services.